Time;durP1;ratioP1;P1;durP2;ratioP2;P2;SDS_P1;SDS_P2;PMS_P1;PMS_P2;Temp;Humidity;BMP_temperature;BMP_pressure;BME280_temperature;BME280_humidity;BME280_pressure;Samples;Min_cycle;Max_cycle;Signal;HPM_P1;HPM_P2
2023/09/30 00:00:10;;;;;;;11.27;3.08;;;;;;;14.19;98.22;101607.06;7394579;19;20369;-62
2023/09/30 00:02:36;;;;;;;12.10;3.03;;;;;;;14.16;98.62;101607.44;7398784;19;20396;-62
2023/09/30 00:05:04;;;;;;;9.80;2.70;;;;;;;14.17;98.71;101608.25;7396896;19;20350;-63
2023/09/30 00:07:31;;;;;;;9.90;3.03;;;;;;;14.15;98.76;101610.28;7398528;19;20386;-63
2023/09/30 00:09:59;;;;;;;9.80;3.40;;;;;;;14.17;98.50;101610.94;7395658;19;20381;-62
2023/09/30 00:12:26;;;;;;;11.25;3.53;;;;;;;14.17;98.62;101619.75;7397650;19;20776;-63
2023/09/30 00:14:54;;;;;;;13.27;3.90;;;;;;;14.17;98.28;101617.09;7396125;19;20376;-63
2023/09/30 00:17:21;;;;;;;9.85;3.72;;;;;;;14.16;98.50;101618.13;7396577;19;20456;-63
2023/09/30 00:19:48;;;;;;;11.15;3.20;;;;;;;14.15;98.36;101613.75;7396981;19;20497;-63
2023/09/30 00:22:15;;;;;;;13.00;3.77;;;;;;;14.13;98.29;101623.81;7397907;19;20407;-63
2023/09/30 00:24:42;;;;;;;9.73;3.35;;;;;;;14.11;98.20;101641.84;7395841;19;20365;-63
2023/09/30 00:27:09;;;;;;;10.18;3.35;;;;;;;14.13;97.99;101641.63;7397562;19;20366;-63
2023/09/30 00:29:36;;;;;;;10.63;3.30;;;;;;;14.12;98.08;101629.31;7397294;19;20354;-62
2023/09/30 00:32:03;;;;;;;13.35;4.05;;;;;;;14.07;98.00;101638.69;7397441;19;20370;-63
2023/09/30 00:34:36;;;;;;;14.30;4.43;;;;;;;14.05;97.97;101637.19;7396633;19;20356;-62
2023/09/30 00:37:04;;;;;;;11.50;3.90;;;;;;;14.03;98.09;101649.88;7397472;19;20452;-63
2023/09/30 00:39:32;;;;;;;10.60;3.70;;;;;;;13.98;97.96;101647.75;7395519;19;20371;-63
2023/09/30 00:41:59;;;;;;;12.10;3.37;;;;;;;13.96;97.76;101648.91;7396736;19;20372;-63
2023/09/30 00:44:27;;;;;;;13.82;3.90;;;;;;;13.93;98.05;101651.91;7397879;19;20658;-62
2023/09/30 00:46:55;;;;;;;11.30;3.72;;;;;;;13.89;97.92;101648.75;7394039;19;20677;-62
2023/09/30 00:49:24;;;;;;;14.35;4.00;;;;;;;13.89;97.69;101647.94;7397081;19;20369;-62
2023/09/30 00:51:52;;;;;;;9.52;3.25;;;;;;;13.86;97.50;101660.63;7396849;19;20379;-63
2023/09/30 00:54:21;;;;;;;11.45;3.75;;;;;;;13.82;97.92;101656.63;7394854;19;20369;-63
2023/09/30 00:56:52;;;;;;;12.70;3.78;;;;;;;13.83;97.69;101660.13;7396392;19;20364;-63
2023/09/30 00:59:19;;;;;;;13.18;4.25;;;;;;;13.80;97.64;101660.47;7395158;19;20696;-63
2023/09/30 01:01:46;;;;;;;11.43;3.60;;;;;;;13.78;97.72;101663.31;7395819;19;20353;-62
2023/09/30 01:04:15;;;;;;;11.25;3.45;;;;;;;13.76;97.61;101659.97;7396965;19;20378;-63
2023/09/30 01:06:42;;;;;;;11.70;4.13;;;;;;;13.75;97.64;101650.31;7393614;19;20871;-62
2023/09/30 01:09:09;;;;;;;12.85;3.92;;;;;;;13.74;97.32;101640.66;7396031;19;20403;-63
2023/09/30 01:11:36;;;;;;;15.77;4.10;;;;;;;13.72;97.24;101641.84;7394477;19;20453;-63
2023/09/30 01:14:03;;;;;;;13.88;3.70;;;;;;;13.70;97.54;101646.50;7394402;19;20665;-63
2023/09/30 01:16:30;;;;;;;13.20;4.05;;;;;;;13.69;97.16;101645.69;7396701;19;20332;-63
2023/09/30 01:18:57;;;;;;;11.00;3.75;;;;;;;13.67;96.92;101650.34;7388399;19;20883;-63
2023/09/30 01:21:26;;;;;;;15.50;4.20;;;;;;;13.62;97.13;101652.69;7394101;19;20396;-63
2023/09/30 01:23:53;;;;;;;15.30;3.90;;;;;;;13.59;97.16;101645.88;7392920;19;20372;-62
2023/09/30 01:26:20;;;;;;;18.25;4.22;;;;;;;13.59;96.98;101653.03;7390839;19;20369;-63
2023/09/30 01:28:48;;;;;;;14.15;3.63;;;;;;;13.55;97.28;101657.88;7396241;19;20338;-62
2023/09/30 01:31:15;;;;;;;14.77;4.20;;;;;;;13.55;97.33;101660.53;7394775;19;20348;-62
2023/09/30 01:33:42;;;;;;;12.73;3.67;;;;;;;13.55;97.30;101667.72;7392678;19;20909;-63
2023/09/30 01:36:09;;;;;;;15.77;4.35;;;;;;;13.56;97.18;101678.22;7393482;19;20371;-63
2023/09/30 01:38:36;;;;;;;14.75;4.45;;;;;;;13.56;97.44;101682.72;7394505;19;20651;-62
2023/09/30 01:41:03;;;;;;;12.98;4.00;;;;;;;13.54;97.12;101682.06;7394577;19;20379;-63
2023/09/30 01:43:30;;;;;;;10.95;3.85;;;;;;;13.53;96.90;101683.03;7392024;19;20360;-61
2023/09/30 01:45:58;;;;;;;14.57;3.45;;;;;;;13.49;97.10;101679.88;7394188;19;20892;-63
2023/09/30 01:48:25;;;;;;;14.85;4.10;;;;;;;13.45;97.11;101684.75;7390480;19;20332;-63
2023/09/30 01:50:52;;;;;;;13.73;3.80;;;;;;;13.42;96.93;101689.56;7391740;19;20328;-63
2023/09/30 01:53:18;;;;;;;17.83;4.50;;;;;;;13.38;96.86;101689.06;7392501;19;20355;-63
2023/09/30 01:55:45;;;;;;;14.02;4.10;;;;;;;13.36;96.92;101684.91;7392112;19;20892;-62
2023/09/30 01:58:12;;;;;;;12.15;3.90;;;;;;;13.33;96.93;101680.75;7391155;19;20364;-62
2023/09/30 02:00:39;;;;;;;15.50;4.60;;;;;;;13.30;97.06;101678.41;7391787;19;21087;-63
2023/09/30 02:03:07;;;;;;;14.43;3.95;;;;;;;13.28;97.06;101688.38;7394820;19;20377;-63
2023/09/30 02:05:34;;;;;;;13.57;3.63;;;;;;;13.27;97.13;101681.41;7390381;19;20375;-62
2023/09/30 02:08:05;;;;;;;12.57;4.15;;;;;;;13.24;97.44;101687.06;7393458;19;20373;-63
2023/09/30 02:10:35;;;;;;;16.63;4.20;;;;;;;13.24;97.48;101687.06;7392017;19;20375;-62
2023/09/30 02:13:05;;;;;;;15.00;4.13;;;;;;;13.22;97.45;101686.41;7392606;19;20413;-62
2023/09/30 02:15:33;;;;;;;14.50;3.97;;;;;;;13.21;97.53;101692.72;7393956;19;20368;-62
2023/09/30 02:18:00;;;;;;;13.50;3.50;;;;;;;13.19;97.31;101689.38;7391815;19;20432;-63
2023/09/30 02:20:30;;;;;;;13.10;3.45;;;;;;;13.16;97.38;101698.56;7389826;19;20381;-63
2023/09/30 02:22:58;;;;;;;15.35;4.00;;;;;;;13.17;97.26;101692.22;7391639;19;20891;-63
2023/09/30 02:25:25;;;;;;;14.00;4.47;;;;;;;13.15;97.66;101682.72;7389020;19;20348;-63
2023/09/30 02:27:52;;;;;;;13.97;3.87;;;;;;;13.15;97.21;101672.06;7392503;19;20389;-63
2023/09/30 02:30:19;;;;;;;12.13;4.13;;;;;;;13.15;97.37;101669.41;7391546;19;20388;-60
2023/09/30 02:32:46;;;;;;;16.97;4.77;;;;;;;13.13;97.44;101668.75;7394318;19;20358;-63
2023/09/30 02:35:16;;;;;;;15.20;3.70;;;;;;;13.13;97.53;101685.56;7388303;19;20365;-63
2023/09/30 02:37:44;;;;;;;15.88;4.30;;;;;;;13.14;97.47;101681.91;7384381;19;20368;-62
2023/09/30 02:40:11;;;;;;;11.77;3.72;;;;;;;13.13;97.60;101684.72;7385018;19;20419;-62
2023/09/30 02:42:39;;;;;;;13.57;3.63;;;;;;;13.12;97.44;101691.91;7385834;19;20752;-62
2023/09/30 02:45:08;;;;;;;14.30;4.03;;;;;;;13.11;97.59;101705.38;7383809;19;20717;-63
2023/09/30 02:47:36;;;;;;;11.05;3.20;;;;;;;13.12;97.67;101699.06;7385448;19;20396;-62
2023/09/30 02:50:08;;;;;;;15.95;4.00;;;;;;;13.12;97.60;101696.41;7386714;19;20389;-62
2023/09/30 02:52:36;;;;;;;14.90;3.95;;;;;;;13.11;97.71;101708.03;7383669;19;20813;-63
2023/09/30 02:55:03;;;;;;;13.43;3.53;;;;;;;13.10;97.61;101712.53;7384397;19;20872;-62
2023/09/30 02:57:31;;;;;;;11.43;3.88;;;;;;;13.08;97.78;101698.56;7384612;19;20348;-62
2023/09/30 03:00:00;;;;;;;11.37;3.27;;;;;;;13.08;98.04;101698.56;7390234;19;21011;-63
2023/09/30 03:02:28;;;;;;;14.60;3.80;;;;;;;13.05;98.15;101697.06;7393050;19;20344;-63
2023/09/30 03:04:55;;;;;;;17.05;4.10;;;;;;;13.04;97.87;101703.38;7391975;19;20400;-62
2023/09/30 03:07:22;;;;;;;12.75;3.45;;;;;;;13.02;97.83;101709.88;7391859;19;20360;-62
2023/09/30 03:09:50;;;;;;;15.00;4.13;;;;;;;13.00;97.75;101712.69;7393174;19;20380;-62
2023/09/30 03:12:17;;;;;;;16.63;4.32;;;;;;;12.97;97.82;101710.38;7392304;19;20360;-63
2023/09/30 03:14:45;;;;;;;14.30;4.00;;;;;;;12.96;97.89;101706.06;7392346;19;20381;-62
2023/09/30 03:17:11;;;;;;;11.63;3.23;;;;;;;12.94;98.04;101702.72;7392676;19;20370;-62
2023/09/30 03:19:39;;;;;;;11.98;3.35;;;;;;;12.92;97.95;101696.72;7390427;19;20362;-62
2023/09/30 03:22:10;;;;;;;15.37;3.83;;;;;;;12.88;98.03;101703.38;7392960;19;20681;-63
2023/09/30 03:24:39;;;;;;;17.48;4.00;;;;;;;12.89;98.11;101697.06;7391548;19;20356;-63
2023/09/30 03:27:07;;;;;;;12.98;4.00;;;;;;;12.88;98.07;101703.38;7390997;19;20368;-63
2023/09/30 03:29:40;;;;;;;13.30;3.40;;;;;;;12.87;98.03;101701.72;7391893;19;20375;-63
2023/09/30 03:32:07;;;;;;;16.10;4.00;;;;;;;12.86;98.20;101700.06;7392613;19;20370;-62
2023/09/30 03:34:37;;;;;;;14.38;3.58;;;;;;;12.84;98.28;101702.88;7391027;19;20348;-62
2023/09/30 03:37:06;;;;;;;18.02;3.85;;;;;;;12.83;98.16;101695.03;7391882;19;20458;-62
2023/09/30 03:39:33;;;;;;;14.57;3.80;;;;;;;12.81;98.45;101700.56;7384562;19;20856;-62
2023/09/30 03:42:01;;;;;;;13.55;3.95;;;;;;;12.81;98.47;101707.69;7388155;19;20863;-63
2023/09/30 03:44:28;;;;;;;10.95;3.70;;;;;;;12.80;98.32;101700.72;7385482;19;20344;-62
2023/09/30 03:46:55;;;;;;;14.18;3.53;;;;;;;12.79;98.47;101704.34;7387271;19;20345;-62
2023/09/30 03:49:22;;;;;;;14.18;4.30;;;;;;;12.78;98.44;101702.72;7387130;19;20332;-62
2023/09/30 03:51:50;;;;;;;11.75;3.85;;;;;;;12.75;98.38;101687.03;7386731;19;20888;-63
2023/09/30 03:54:17;;;;;;;14.50;4.10;;;;;;;12.72;98.62;101696.19;7379227;19;20928;-62
2023/09/30 03:56:46;;;;;;;14.27;4.43;;;;;;;12.69;98.90;101701.00;7387073;19;20365;-62
2023/09/30 03:59:13;;;;;;;15.55;4.10;;;;;;;12.67;99.04;101692.38;7384991;19;20977;-62
2023/09/30 04:01:40;;;;;;;11.38;4.18;;;;;;;12.63;99.09;101686.53;7388591;19;20364;-62
2023/09/30 04:04:09;;;;;;;13.20;4.57;;;;;;;12.57;99.21;101696.00;7385556;19;20678;-62
2023/09/30 04:06:40;;;;;;;15.90;4.45;;;;;;;12.57;99.22;101696.00;7386754;19;20394;-63
2023/09/30 04:09:10;;;;;;;12.40;4.22;;;;;;;12.55;99.56;101699.84;7385932;19;20364;-62
2023/09/30 04:11:37;;;;;;;11.13;4.32;;;;;;;12.53;99.71;101697.31;7385812;19;20356;-62
2023/09/30 04:14:07;;;;;;;13.40;4.82;;;;;;;12.51;99.69;101707.31;7384124;19;20487;-62
2023/09/30 04:16:35;;;;;;;13.65;4.15;;;;;;;12.50;99.54;101700.34;7386947;19;20388;-62
2023/09/30 04:19:02;;;;;;;14.65;4.32;;;;;;;12.50;99.52;101696.84;7386139;19;20361;-62
2023/09/30 04:21:30;;;;;;;12.00;4.60;;;;;;;12.48;99.47;101694.34;7386777;19;20404;-62
2023/09/30 04:23:57;;;;;;;16.23;4.80;;;;;;;12.47;99.68;101705.97;7384705;19;20360;-62
2023/09/30 04:26:25;;;;;;;16.15;5.13;;;;;;;12.45;99.80;101702.63;7384940;19;20703;-61
2023/09/30 04:28:53;;;;;;;14.07;4.65;;;;;;;12.43;99.97;101694.81;7385176;19;20385;-62
2023/09/30 04:31:23;;;;;;;14.95;4.72;;;;;;;12.42;99.94;101693.16;7386735;19;20372;-62
2023/09/30 04:33:51;;;;;;;14.15;4.68;;;;;;;12.41;99.99;101699.47;7387591;19;20856;-62
2023/09/30 04:36:19;;;;;;;15.05;4.90;;;;;;;12.40;100.00;101697.81;7389468;19;20361;-62
2023/09/30 04:38:46;;;;;;;14.65;4.75;;;;;;;12.40;100.00;101699.63;7387641;19;20380;-62
2023/09/30 04:41:13;;;;;;;12.60;4.35;;;;;;;12.39;100.00;101711.28;7387432;19;20351;-62
2023/09/30 04:43:39;;;;;;;15.73;5.38;;;;;;;12.40;100.00;101710.28;7387309;19;20375;-62
2023/09/30 04:46:07;;;;;;;12.48;5.35;;;;;;;12.39;100.00;101713.94;7387622;19;20364;-62
2023/09/30 04:48:35;;;;;;;12.00;5.30;;;;;;;12.40;100.00;101716.44;7387826;19;20372;-61
2023/09/30 04:51:06;;;;;;;14.77;5.00;;;;;;;12.41;100.00;101718.09;7388581;19;20373;-63
2023/09/30 04:53:33;;;;;;;13.65;4.95;;;;;;;12.44;100.00;101717.78;7385376;19;20373;-60
2023/09/30 04:56:01;;;;;;;15.57;5.13;;;;;;;12.46;100.00;101717.63;7386049;19;20368;-62
2023/09/30 04:58:29;;;;;;;14.98;5.60;;;;;;;12.48;100.00;101718.28;7385646;19;20372;-62
2023/09/30 05:00:56;;;;;;;12.00;5.05;;;;;;;12.51;100.00;101717.13;7385640;19;20373;-62
2023/09/30 05:03:24;;;;;;;16.55;5.55;;;;;;;12.52;100.00;101711.66;7385218;19;20360;-62
2023/09/30 05:05:56;;;;;;;11.60;4.95;;;;;;;12.54;100.00;101712.31;7386427;19;20347;-62
2023/09/30 05:08:24;;;;;;;15.60;4.93;;;;;;;12.54;100.00;101712.31;7387375;19;20365;-62
2023/09/30 05:10:55;;;;;;;12.07;4.70;;;;;;;12.54;100.00;101707.00;7382085;19;20424;-61
2023/09/30 05:13:25;;;;;;;12.60;4.53;;;;;;;12.53;100.00;101709.81;7379375;19;20876;-62
2023/09/30 05:15:52;;;;;;;16.83;5.47;;;;;;;12.51;100.00;101704.63;7384612;19;20364;-62
2023/09/30 05:18:20;;;;;;;15.30;5.18;;;;;;;12.50;100.00;101715.47;7384587;19;20387;-62
2023/09/30 05:20:47;;;;;;;13.40;4.95;;;;;;;12.49;100.00;101714.63;7380950;19;20372;-62
2023/09/30 05:23:14;;;;;;;10.47;4.50;;;;;;;12.48;100.00;101717.47;7385453;19;20728;-61
2023/09/30 05:25:42;;;;;;;13.13;5.20;;;;;;;12.47;100.00;101721.94;7386553;19;20702;-62
2023/09/30 05:28:11;;;;;;;17.80;5.60;;;;;;;12.46;100.00;101720.28;7385551;19;20366;-62
2023/09/30 05:30:39;;;;;;;19.42;5.22;;;;;;;12.48;100.00;101718.28;7380946;19;20448;-62
2023/09/30 05:33:06;;;;;;;15.88;4.95;;;;;;;12.49;100.00;101724.44;7382078;19;20352;-62
2023/09/30 05:35:33;;;;;;;14.00;5.00;;;;;;;12.50;100.00;101732.28;7384465;19;20770;-62
2023/09/30 05:38:00;;;;;;;15.50;5.07;;;;;;;12.52;100.00;101724.97;7383477;19;20415;-61
2023/09/30 05:40:30;;;;;;;15.43;4.95;;;;;;;12.53;100.00;101725.78;7381844;19;20867;-62
2023/09/30 05:42:58;;;;;;;14.10;4.20;;;;;;;12.55;100.00;101734.44;7385092;19;20369;-62
2023/09/30 05:45:27;;;;;;;11.90;4.40;;;;;;;12.55;100.00;101719.28;7382967;19;20381;-62
2023/09/30 05:47:56;;;;;;;14.13;4.57;;;;;;;12.59;100.00;101730.47;7382255;19;20352;-62
2023/09/30 05:50:24;;;;;;;9.57;4.30;;;;;;;12.62;100.00;101723.00;7384109;19;20368;-64
2023/09/30 05:52:53;;;;;;;13.70;5.13;;;;;;;12.69;100.00;101735.63;7379354;19;20437;-61
2023/09/30 05:55:21;;;;;;;17.75;5.95;;;;;;;12.76;100.00;101736.66;7382907;19;20950;-61
2023/09/30 05:57:52;;;;;;;11.50;4.22;;;;;;;12.83;100.00;101733.16;7383390;19;20428;-62
2023/09/30 06:00:23;;;;;;;13.38;4.70;;;;;;;12.91;100.00;101737.66;7384117;19;20360;-63
2023/09/30 06:02:51;;;;;;;14.93;4.63;;;;;;;12.98;100.00;101736.00;7385475;19;20695;-62
2023/09/30 06:05:18;;;;;;;12.43;4.03;;;;;;;13.09;100.00;101744.66;7382704;19;21413;-62
2023/09/30 06:07:46;;;;;;;11.67;4.67;;;;;;;13.13;99.62;101749.50;7383186;19;20360;-64
2023/09/30 06:10:18;;;;;;;88.40;65.87;;;;;;;13.22;99.71;101758.34;7382137;19;20438;-63
2023/09/30 06:12:47;;;;;;;12.70;4.10;;;;;;;13.29;99.07;101764.69;7383011;19;20348;-64
2023/09/30 06:15:15;;;;;;;11.90;4.57;;;;;;;13.36;98.76;101765.69;7385903;19;20727;-63
2023/09/30 06:17:42;;;;;;;13.00;4.45;;;;;;;13.40;98.49;101772.34;7386609;19;20355;-63
2023/09/30 06:20:16;;;;;;;12.70;4.30;;;;;;;13.48;98.20;101782.19;7383991;19;20746;-64
2023/09/30 06:22:47;;;;;;;13.52;5.60;;;;;;;13.56;98.31;101784.03;7382170;19;20412;-64
2023/09/30 06:25:16;;;;;;;14.43;4.33;;;;;;;13.61;97.75;101785.16;7383513;19;20372;-64
2023/09/30 06:27:44;;;;;;;13.40;4.35;;;;;;;13.62;97.35;101781.53;7382562;19;21185;-64
2023/09/30 06:30:12;;;;;;;14.93;3.87;;;;;;;13.61;97.20;101779.00;7378521;19;20348;-64
2023/09/30 06:32:40;;;;;;;11.90;4.00;;;;;;;13.58;97.13;101779.31;7381244;19;20456;-64
2023/09/30 06:35:10;;;;;;;12.70;3.92;;;;;;;13.57;97.20;101785.69;7383308;19;20894;-64
2023/09/30 06:37:37;;;;;;;11.43;4.10;;;;;;;13.57;97.33;101783.84;7384046;19;20356;-64
2023/09/30 06:40:08;;;;;;;14.05;4.03;;;;;;;13.60;97.40;101777.31;7382229;19;20380;-64
2023/09/30 06:42:36;;;;;;;14.23;4.30;;;;;;;13.62;97.33;101783.31;7383205;19;20408;-64
2023/09/30 06:45:07;;;;;;;10.73;4.07;;;;;;;13.66;97.34;101793.50;7377915;19;21033;-64
2023/09/30 06:47:34;;;;;;;14.50;4.18;;;;;;;13.72;97.32;101796.50;7380674;19;20344;-64
2023/09/30 06:50:07;;;;;;;12.15;3.65;;;;;;;13.77;97.16;101795.00;7382383;19;20368;-64
2023/09/30 06:52:36;;;;;;;13.23;4.00;;;;;;;13.85;97.06;101797.63;7382700;19;20985;-64
2023/09/30 06:55:04;;;;;;;13.57;4.25;;;;;;;13.94;96.83;101800.28;7382437;19;20378;-64
2023/09/30 06:57:40;;;;;;;12.82;3.97;;;;;;;14.05;96.59;101802.63;7382925;19;20357;-64
2023/09/30 07:00:12;;;;;;;12.93;4.38;;;;;;;14.13;96.26;101805.25;7383132;19;20906;-64
2023/09/30 07:02:41;;;;;;;12.93;3.92;;;;;;;14.22;95.97;101804.22;7381232;19;20661;-64
2023/09/30 07:05:13;;;;;;;9.60;4.07;;;;;;;14.33;95.69;101810.19;7379509;19;20427;-64
2023/09/30 07:07:42;;;;;;;13.27;3.88;;;;;;;14.42;95.12;101814.50;7383070;19;20340;-64
2023/09/30 07:10:11;;;;;;;13.75;4.50;;;;;;;14.51;95.19;101813.44;7383621;19;21023;-64
2023/09/30 07:12:37;;;;;;;11.43;3.67;;;;;;;14.60;94.59;101828.47;7381094;19;20850;-64
2023/09/30 07:15:06;;;;;;;13.55;4.00;;;;;;;14.72;94.50;101818.22;7380702;19;20864;-64
2023/09/30 07:17:33;;;;;;;12.30;3.47;;;;;;;14.79;93.64;101827.22;7384089;19;20347;-64
2023/09/30 07:20:02;;;;;;;14.00;3.97;;;;;;;14.87;93.17;101827.16;7379193;19;20436;-64
2023/09/30 07:22:29;;;;;;;10.75;3.55;;;;;;;14.95;92.57;101818.28;7380945;19;20368;-64
2023/09/30 07:24:58;;;;;;;10.90;3.80;;;;;;;15.06;92.31;101825.03;7380632;19;20885;-64
2023/09/30 07:27:25;;;;;;;13.75;3.63;;;;;;;15.15;92.05;101831.16;7381735;19;20720;-64
2023/09/30 07:29:54;;;;;;;13.25;3.90;;;;;;;15.28;92.34;101842.13;7382040;19;20333;-64
2023/09/30 07:32:24;;;;;;;12.10;4.15;;;;;;;15.42;91.47;101833.31;7379328;19;20422;-64
2023/09/30 07:34:52;;;;;;;10.10;3.28;;;;;;;15.58;90.69;101836.88;7380706;19;20345;-64
2023/09/30 07:37:20;;;;;;;8.90;3.25;;;;;;;15.64;88.99;101846.84;7382924;19;20405;-64
2023/09/30 07:39:47;;;;;;;11.10;3.70;;;;;;;15.74;88.70;101844.78;7379881;19;20360;-64
2023/09/30 07:42:14;;;;;;;8.77;2.85;;;;;;;15.82;87.93;101834.00;7377383;19;20375;-64
2023/09/30 07:44:41;;;;;;;10.27;3.40;;;;;;;15.96;88.06;101836.88;7383446;19;20432;-64
2023/09/30 07:47:09;;;;;;;11.43;3.57;;;;;;;16.10;87.70;101850.28;7387513;19;21111;-64
2023/09/30 07:49:37;;;;;;;8.57;3.00;;;;;;;16.23;87.15;101852.31;7387352;19;20884;-64
2023/09/30 07:52:04;;;;;;;11.00;3.30;;;;;;;16.34;85.74;101842.16;7381921;19;20854;-64
2023/09/30 07:54:31;;;;;;;9.40;3.37;;;;;;;16.45;85.38;101855.94;7383378;19;20368;-64
2023/09/30 07:56:58;;;;;;;9.50;3.30;;;;;;;16.52;84.19;101851.50;7386613;19;20389;-64
2023/09/30 07:59:26;;;;;;;10.98;3.47;;;;;;;16.59;83.17;101851.56;7383745;19;20911;-64
2023/09/30 08:01:53;;;;;;;8.70;3.03;;;;;;;16.71;83.51;101860.81;7384887;19;20427;-64
2023/09/30 08:04:20;;;;;;;12.00;3.17;;;;;;;16.88;83.64;101863.31;7386486;19;20361;-64
2023/09/30 08:06:48;;;;;;;11.68;3.35;;;;;;;16.94;82.05;101864.38;7387297;19;20367;-64
2023/09/30 08:09:18;;;;;;;11.05;3.17;;;;;;;17.03;82.02;101864.09;7384130;19;20662;-64
2023/09/30 08:11:45;;;;;;;12.15;2.90;;;;;;;17.14;82.13;101864.63;7387771;19;20365;-64
2023/09/30 08:14:12;;;;;;;9.77;3.03;;;;;;;17.29;82.39;101858.19;7385368;19;20376;-64
2023/09/30 08:16:39;;;;;;;9.77;2.97;;;;;;;17.40;80.71;101864.88;7384441;19;20376;-64
2023/09/30 08:19:06;;;;;;;13.07;2.90;;;;;;;17.53;80.50;101867.72;7385502;19;20373;-64
2023/09/30 08:21:33;;;;;;;8.80;2.90;;;;;;;17.70;79.37;101867.44;7382882;19;20862;-64
2023/09/30 08:24:00;;;;;;;11.63;2.50;;;;;;;17.89;78.19;101871.34;7384092;19;20383;-64
2023/09/30 08:26:27;;;;;;;7.65;2.70;;;;;;;18.00;76.91;101853.84;7384699;19;20352;-64
2023/09/30 08:28:53;;;;;;;7.95;2.35;;;;;;;18.12;75.97;101868.41;7386382;19;20372;-64
2023/09/30 08:31:21;;;;;;;10.20;3.03;;;;;;;18.20;75.32;101860.19;7382796;19;20888;-64
2023/09/30 08:33:48;;;;;;;7.50;2.15;;;;;;;18.33;75.94;101864.81;7384324;19;20381;-64
2023/09/30 08:36:15;;;;;;;10.38;2.83;;;;;;;18.45;74.71;101870.47;7382445;19;21001;-64
2023/09/30 08:38:42;;;;;;;7.97;2.10;;;;;;;18.52;73.66;101874.03;7386072;19;20373;-64
2023/09/30 08:41:09;;;;;;;8.50;2.40;;;;;;;18.57;72.96;101871.56;7374835;19;20352;-64
2023/09/30 08:43:40;;;;;;;7.18;2.13;;;;;;;18.63;72.66;101860.00;7377789;19;20922;-64
2023/09/30 08:46:07;;;;;;;9.07;2.33;;;;;;;18.62;71.70;101879.03;7379996;19;20379;-64
2023/09/30 08:48:34;;;;;;;7.13;2.10;;;;;;;18.71;71.22;101867.91;7378733;19;20348;-64
2023/09/30 08:51:02;;;;;;;5.68;1.95;;;;;;;18.76;71.28;101864.63;7378884;19;20376;-64
2023/09/30 08:53:30;;;;;;;7.97;2.85;;;;;;;18.83;71.56;101870.03;7378013;19;20436;-64
2023/09/30 08:55:59;;;;;;;6.88;2.00;;;;;;;18.86;69.98;101869.66;7378869;19;20364;-64
2023/09/30 08:58:32;;;;;;;9.27;2.53;;;;;;;18.88;70.84;101870.28;7383212;19;20389;-64
2023/09/30 09:00:58;;;;;;;9.32;2.35;;;;;;;18.93;70.35;101867.81;7383262;19;20440;-64
2023/09/30 09:03:28;;;;;;;8.60;1.95;;;;;;;18.93;68.26;101892.00;7383839;19;20361;-64
2023/09/30 09:05:56;;;;;;;6.57;2.05;;;;;;;18.88;67.85;101884.56;7384267;19;20879;-63
2023/09/30 09:08:25;;;;;;;6.00;1.90;;;;;;;18.86;67.41;101885.78;7384673;19;20368;-63
2023/09/30 09:10:57;;;;;;;6.65;2.42;;;;;;;18.87;68.64;101882.06;7391955;19;20385;-63
2023/09/30 09:13:24;;;;;;;8.88;2.20;;;;;;;18.95;68.68;101880.00;7397225;19;20348;-64
2023/09/30 09:16:07;;;;;;;7.82;2.15;;;;;;;18.98;68.33;101886.03;7396043;19;20352;-63
2023/09/30 09:18:38;;;;;;;7.05;2.00;;;;;;;18.95;67.55;101888.09;7395336;19;20714;-63
2023/09/30 09:21:11;;;;;;;7.18;1.70;;;;;;;18.86;67.32;101896.53;7394640;19;20371;-63
2023/09/30 09:23:43;;;;;;;5.70;2.08;;;;;;;19.08;67.24;101897.22;7395935;19;20446;-64
2023/09/30 09:26:31;;;;;;;6.80;2.17;;;;;;;19.22;66.86;101901.63;7393525;19;20359;-64
2023/09/30 09:28:59;;;;;;;8.15;2.15;;;;;;;19.32;67.33;101902.06;7396767;19;20747;-63
2023/09/30 09:31:34;;;;;;;6.37;1.80;;;;;;;19.39;65.53;101893.19;7393326;19;20382;-63
2023/09/30 09:34:02;;;;;;;7.22;2.13;;;;;;;19.58;66.22;101891.56;7396749;19;20439;-64
2023/09/30 09:36:44;;;;;;;8.35;2.20;;;;;;;19.70;65.69;101890.78;7394812;19;20397;-63
2023/09/30 09:39:15;;;;;;;8.15;2.33;;;;;;;19.88;64.53;101884.75;7388677;19;20364;-63
2023/09/30 09:41:52;;;;;;;7.30;2.10;;;;;;;20.08;64.42;101892.84;7391420;19;20364;-64
2023/09/30 09:44:21;;;;;;;6.38;2.38;;;;;;;20.09;64.16;101896.34;7396398;19;20344;-64
2023/09/30 09:46:50;;;;;;;11.47;2.43;;;;;;;19.98;64.22;101881.66;7394820;19;20435;-63
2023/09/30 09:49:18;;;;;;;8.20;2.35;;;;;;;19.95;62.47;101877.53;7394674;19;20372;-63
2023/09/30 09:51:49;;;;;;;4.60;1.70;;;;;;;19.90;62.51;101881.88;7393394;19;20377;-64
2023/09/30 09:54:16;;;;;;;5.05;1.90;;;;;;;19.89;62.73;101872.97;7390596;19;20360;-64
2023/09/30 09:56:49;;;;;;;6.28;1.85;;;;;;;19.86;61.85;101876.06;7392906;19;20696;-63
2023/09/30 09:59:16;;;;;;;5.47;1.80;;;;;;;19.84;62.34;101882.69;7392965;19;20349;-63
2023/09/30 10:01:45;;;;;;;8.18;2.08;;;;;;;19.71;62.13;101888.91;7393294;19;20348;-63
2023/09/30 10:04:15;;;;;;;6.65;2.30;;;;;;;19.61;61.95;101878.50;7391244;19;20364;-63
2023/09/30 10:06:48;;;;;;;6.37;2.30;;;;;;;19.74;62.37;101885.78;7391676;19;20427;-63
2023/09/30 10:09:17;;;;;;;7.80;2.33;;;;;;;19.89;63.39;101893.66;7389238;19;20362;-63
2023/09/30 10:11:45;;;;;;;7.00;2.20;;;;;;;19.89;60.35;101890.97;7393215;19;20367;-64
2023/09/30 10:14:30;;;;;;;4.55;1.70;;;;;;;19.76;60.86;101891.78;7395295;19;20641;-63
2023/09/30 10:16:57;;;;;;;4.65;1.52;;;;;;;19.69;61.98;101907.09;7395293;19;20345;-63
2023/09/30 10:19:24;;;;;;;7.15;2.10;;;;;;;19.74;62.04;101893.84;7394072;19;20348;-63
2023/09/30 10:22:19;;;;;;;6.97;1.70;;;;;;;19.77;60.54;101898.84;7385502;19;20359;-63
2023/09/30 10:24:51;;;;;;;5.60;1.73;;;;;;;19.83;60.31;101891.81;7392577;19;20445;-63
2023/09/30 10:27:24;;;;;;;4.78;1.70;;;;;;;19.80;60.01;101898.41;7393825;19;20352;-64
2023/09/30 10:30:16;;;;;;;4.97;1.70;;;;;;;19.97;60.12;101885.38;7390249;19;20349;-63
2023/09/30 10:32:52;;;;;;;5.43;1.80;;;;;;;20.04;59.58;101904.22;7395211;19;20428;-63
2023/09/30 10:35:41;;;;;;;6.75;1.77;;;;;;;20.06;59.62;101907.53;7393756;19;20552;-63
2023/09/30 10:38:24;;;;;;;7.93;1.80;;;;;;;20.05;59.21;101897.81;7392130;19;20373;-64
2023/09/30 10:40:53;;;;;;;5.23;1.60;;;;;;;20.20;59.73;101890.31;7392203;19;20713;-63
2023/09/30 10:43:32;;;;;;;7.70;2.33;;;;;;;20.40;58.10;101887.59;7391817;19;20364;-63
2023/09/30 10:46:00;;;;;;;5.87;1.73;;;;;;;20.56;57.67;101891.69;7394648;19;20421;-63
2023/09/30 10:48:27;;;;;;;6.00;1.75;;;;;;;20.76;57.06;101902.44;7392925;19;20893;-63
2023/09/30 10:51:01;;;;;;;7.30;2.00;;;;;;;20.83;54.75;101907.81;7392648;19;20372;-63
2023/09/30 10:53:28;;;;;;;7.32;1.90;;;;;;;20.91;54.99;101921.03;7388794;19;20912;-63
2023/09/30 10:55:57;;;;;;;5.18;1.60;;;;;;;21.06;55.05;101907.28;7392276;19;20392;-64
2023/09/30 10:58:42;;;;;;;5.60;1.70;;;;;;;21.32;55.53;101884.72;7392408;19;20356;-63
2023/09/30 11:01:13;;;;;;;4.32;1.42;;;;;;;21.35;52.60;101889.69;7393399;19;20348;-63
2023/09/30 11:03:41;;;;;;;4.90;1.65;;;;;;;21.53;53.20;101891.69;7388370;19;20852;-63
2023/09/30 11:06:17;;;;;;;4.32;1.48;;;;;;;21.74;52.39;101882.34;7393262;19;20385;-63
2023/09/30 11:08:50;;;;;;;4.82;1.23;;;;;;;21.75;50.87;101894.81;7389546;19;20762;-63
2023/09/30 11:11:17;;;;;;;7.30;1.80;;;;;;;21.77;51.87;101887.34;7391464;19;20360;-63
2023/09/30 11:13:44;;;;;;;5.25;1.45;;;;;;;21.86;51.89;101893.28;7389951;19;20369;-63
2023/09/30 11:16:11;;;;;;;4.45;1.30;;;;;;;21.81;50.41;101882.31;7391041;19;20371;-63
2023/09/30 11:18:38;;;;;;;4.55;1.60;;;;;;;21.82;48.11;101890.19;7391292;19;20378;-63
2023/09/30 11:21:10;;;;;;;4.25;1.70;;;;;;;22.05;48.59;101886.06;7396674;19;20361;-64
2023/09/30 11:23:37;;;;;;;4.57;1.45;;;;;;;22.08;48.63;101881.03;7396875;19;20816;-63
2023/09/30 11:26:05;;;;;;;4.73;1.37;;;;;;;22.18;46.68;101883.22;7397084;19;20360;-63